Weather at N 307 Helipad

Public forecast

Using degrees Celsius for public forecast. Weather courtesy of forecast.io.

Closest aviation weather report (METAR) to N 307 Helipad

Closest report is Muan International Airport, 27.5 nm (51.0 km) SE. Retrieved 2021/10/23 00:00 UTC (45 minutes ago):

RKJB 230000Z 07004KT CAVOK 12/05 Q1029 NOSIG

Closest aviation forecast (TAF) to N 307 Helipad

Closest forecast is Muan International Airport, 27.5 nm (51.0 km) SE. Retrieved 2021-10-23 00:00 UTC (45 minutes ago):

TAF RKJB 222300Z 2300/2406 11005KT CAVOK TX19/2305Z TN07/2321Z TX19/2405Z BECMG 2302/2303 35006KT BECMG 2312/2313 11005KT BECMG 2403/2404 35006KT